Airfield :
LOGIN :

Register | Disclaimer

   EN    FR    IT 

 










Legend :    VFR   Marginal VFR   IFR   Intensive IFR   Very Intensive IFR
Visi :
Ceiling :
>= 8 km
>= 3000ft
5 to 8 km
1000 to 3000 ft
1500m to 5 km
500 to 1000 ft
800 to 1500m
200 to 500 ft
< 800m
< 200 ft
Symbols :   Thunderstorms  Fog  Heavy snow  Heavy precipitations  Wind > 20 kt
SIGMETs :     Misc.  Thunderstorms  Icing  Turbulence  Mountain Waves  Volcanic Ashes






- Airport Elevation : 40 ft
- IATA code : RMI


LIPR - Federico Fellini Int. Rimini

CURRENT METAR :
  • 050620Z AUTO 17007KT 9999 BKN071/// 18/14 Q0998

EXPIRED METARs :
  • 050550Z AUTO 17004KT 9999 OVC094/// 18/14 Q0998
  • 050520Z AUTO 16005KT 9999 BKN093/// BKN130/// 18/14 Q0997
  • 050450Z AUTO 14004KT 9999 FEW089/// BKN140/// 17/15 Q0997
  • 050420Z AUTO 12005KT 9999 FEW100/// BKN120/// 17/15 Q0997
  • 050350Z AUTO 09004KT 020V140 9999 OVC120/// 17/15 Q0997

TAF TAF LIPR
Valid from the 05 at 06:00 until the 05 at 15:00 UTC


050500Z 0506/0515 16007KT 9999 BKN030



MET'MAP, your aeronautical weather chart ! - Copyright ORBIFLY December 2007 - Disclaimer

ORBIFLY MET'MAP TEAM :

Programming & Development : Alexandra Zaïnal
Concept & original design : Baudouin d'Aumeries
Assistance for programming : Marc-Olivier Méhu
Technical & hardware support : Manuel Goepfert

Contact : metmap@orbifly.com




SOURCES & CREDITS :

   NOAA